sensor_id;sensor_type;location;lat;lon;timestamp;temperature;humidity
54832;DHT22;40730;53.068;6.572;2024-02-15T00:01:39;11.20;99.90
54832;DHT22;40730;53.068;6.572;2024-02-15T00:04:05;11.20;99.90
54832;DHT22;40730;53.068;6.572;2024-02-15T00:06:31;11.10;99.90
54832;DHT22;40730;53.068;6.572;2024-02-15T00:08:57;11.20;99.90
54832;DHT22;40730;53.068;6.572;2024-02-15T00:11:22;11.10;99.90
54832;DHT22;40730;53.068;6.572;2024-02-15T00:13:48;11.20;99.90
54832;DHT22;40730;53.068;6.572;2024-02-15T00:16:14;11.20;99.90
54832;DHT22;40730;53.068;6.572;2024-02-15T00:18:43;11.20;99.90
54832;DHT22;40730;53.068;6.572;2024-02-15T00:21:08;11.10;99.90
54832;DHT22;40730;53.068;6.572;2024-02-15T00:23:34;11.20;99.90
54832;DHT22;40730;53.068;6.572;2024-02-15T00:25:59;11.20;99.90
54832;DHT22;40730;53.068;6.572;2024-02-15T00:28:25;11.10;99.90
54832;DHT22;40730;53.068;6.572;2024-02-15T00:30:52;11.10;99.90
54832;DHT22;40730;53.068;6.572;2024-02-15T00:33:18;11.20;99.90
54832;DHT22;40730;53.068;6.572;2024-02-15T00:35:44;11.10;99.90
54832;DHT22;40730;53.068;6.572;2024-02-15T00:38:09;11.20;99.90
54832;DHT22;40730;53.068;6.572;2024-02-15T00:40:35;11.10;99.90
54832;DHT22;40730;53.068;6.572;2024-02-15T00:43:01;11.10;99.90
54832;DHT22;40730;53.068;6.572;2024-02-15T00:45:26;11.10;99.90
54832;DHT22;40730;53.068;6.572;2024-02-15T00:47:52;11.20;99.90
54832;DHT22;40730;53.068;6.572;2024-02-15T00:50:18;11.10;99.90
54832;DHT22;40730;53.068;6.572;2024-02-15T00:52:44;11.10;99.90
54832;DHT22;40730;53.068;6.572;2024-02-15T00:55:10;11.20;99.90
54832;DHT22;40730;53.068;6.572;2024-02-15T00:57:35;11.20;99.90
54832;DHT22;40730;53.068;6.572;2024-02-15T01:00:01;11.20;99.90
54832;DHT22;40730;53.068;6.572;2024-02-15T01:02:28;11.20;99.90
54832;DHT22;40730;53.068;6.572;2024-02-15T01:04:54;11.10;99.90
54832;DHT22;40730;53.068;6.572;2024-02-15T01:07:22;11.20;99.90
54832;DHT22;40730;53.068;6.572;2024-02-15T01:09:51;11.20;99.90
54832;DHT22;40730;53.068;6.572;2024-02-15T01:12:17;11.20;99.90
54832;DHT22;40730;53.068;6.572;2024-02-15T01:14:42;11.20;99.90
54832;DHT22;40730;53.068;6.572;2024-02-15T01:17:09;11.30;99.90
54832;DHT22;40730;53.068;6.572;2024-02-15T01:19:34;11.10;99.90
54832;DHT22;40730;53.068;6.572;2024-02-15T01:22:00;11.20;99.90
54832;DHT22;40730;53.068;6.572;2024-02-15T01:24:26;11.30;99.90
54832;DHT22;40730;53.068;6.572;2024-02-15T01:26:52;11.30;99.90
54832;DHT22;40730;53.068;6.572;2024-02-15T01:29:18;11.20;99.90
54832;DHT22;40730;53.068;6.572;2024-02-15T01:31:44;11.30;99.90
54832;DHT22;40730;53.068;6.572;2024-02-15T01:34:10;11.20;99.90
54832;DHT22;40730;53.068;6.572;2024-02-15T01:36:35;11.60;99.90
54832;DHT22;40730;53.068;6.572;2024-02-15T01:39:01;11.30;99.90
54832;DHT22;40730;53.068;6.572;2024-02-15T01:41:27;11.30;99.90
54832;DHT22;40730;53.068;6.572;2024-02-15T01:43:52;11.20;99.90
54832;DHT22;40730;53.068;6.572;2024-02-15T01:46:19;11.30;99.90
54832;DHT22;40730;53.068;6.572;2024-02-15T01:48:45;11.30;99.90
54832;DHT22;40730;53.068;6.572;2024-02-15T01:51:12;11.20;99.90
54832;DHT22;40730;53.068;6.572;2024-02-15T01:53:41;11.30;99.90
54832;DHT22;40730;53.068;6.572;2024-02-15T01:56:07;11.40;99.90
54832;DHT22;40730;53.068;6.572;2024-02-15T01:58:33;11.30;99.90
54832;DHT22;40730;53.068;6.572;2024-02-15T02:01:00;11.30;99.90
54832;DHT22;40730;53.068;6.572;2024-02-15T02:03:25;11.30;99.90
54832;DHT22;40730;53.068;6.572;2024-02-15T02:05:51;11.30;99.90
54832;DHT22;40730;53.068;6.572;2024-02-15T02:08:17;11.20;99.90
54832;DHT22;40730;53.068;6.572;2024-02-15T02:10:43;11.20;99.90
54832;DHT22;40730;53.068;6.572;2024-02-15T02:13:09;11.30;99.90
54832;DHT22;40730;53.068;6.572;2024-02-15T02:15:35;11.30;99.90
54832;DHT22;40730;53.068;6.572;2024-02-15T02:18:03;11.30;99.90
54832;DHT22;40730;53.068;6.572;2024-02-15T02:20:32;11.30;99.90
54832;DHT22;40730;53.068;6.572;2024-02-15T02:23:14;11.30;99.90
54832;DHT22;40730;53.068;6.572;2024-02-15T02:25:40;11.30;99.90
54832;DHT22;40730;53.068;6.572;2024-02-15T02:28:09;11.30;99.90
54832;DHT22;40730;53.068;6.572;2024-02-15T02:30:35;11.30;99.90
54832;DHT22;40730;53.068;6.572;2024-02-15T02:33:01;11.30;99.90
54832;DHT22;40730;53.068;6.572;2024-02-15T02:35:27;11.30;99.90
54832;DHT22;40730;53.068;6.572;2024-02-15T02:37:56;11.30;99.90
54832;DHT22;40730;53.068;6.572;2024-02-15T02:40:21;11.30;99.90
54832;DHT22;40730;53.068;6.572;2024-02-15T02:42:52;11.30;99.90
54832;DHT22;40730;53.068;6.572;2024-02-15T02:45:19;11.40;99.90
54832;DHT22;40730;53.068;6.572;2024-02-15T02:47:46;11.40;99.90
54832;DHT22;40730;53.068;6.572;2024-02-15T02:50:13;11.30;99.90
54832;DHT22;40730;53.068;6.572;2024-02-15T02:52:39;11.50;99.90
54832;DHT22;40730;53.068;6.572;2024-02-15T02:55:05;11.40;99.90
54832;DHT22;40730;53.068;6.572;2024-02-15T02:57:37;11.40;99.90
54832;DHT22;40730;53.068;6.572;2024-02-15T03:00:10;11.50;99.90
54832;DHT22;40730;53.068;6.572;2024-02-15T03:02:42;11.50;99.90
54832;DHT22;40730;53.068;6.572;2024-02-15T03:05:08;11.50;99.90
54832;DHT22;40730;53.068;6.572;2024-02-15T03:07:36;11.40;99.90
54832;DHT22;40730;53.068;6.572;2024-02-15T03:10:02;11.40;99.90
54832;DHT22;40730;53.068;6.572;2024-02-15T03:12:30;11.40;99.90
54832;DHT22;40730;53.068;6.572;2024-02-15T03:14:56;11.40;99.90
54832;DHT22;40730;53.068;6.572;2024-02-15T03:17:23;11.40;99.90
54832;DHT22;40730;53.068;6.572;2024-02-15T03:19:49;11.40;99.90
54832;DHT22;40730;53.068;6.572;2024-02-15T03:22:14;11.40;99.90
54832;DHT22;40730;53.068;6.572;2024-02-15T03:24:40;11.40;99.90
54832;DHT22;40730;53.068;6.572;2024-02-15T03:27:07;11.40;99.90
54832;DHT22;40730;53.068;6.572;2024-02-15T03:29:32;11.40;99.90
54832;DHT22;40730;53.068;6.572;2024-02-15T03:32:04;11.40;99.90
54832;DHT22;40730;53.068;6.572;2024-02-15T03:34:30;11.40;99.90
54832;DHT22;40730;53.068;6.572;2024-02-15T03:36:57;11.40;99.90
54832;DHT22;40730;53.068;6.572;2024-02-15T03:39:23;11.30;99.90
54832;DHT22;40730;53.068;6.572;2024-02-15T03:41:49;11.40;99.90
54832;DHT22;40730;53.068;6.572;2024-02-15T03:44:16;11.40;99.90
54832;DHT22;40730;53.068;6.572;2024-02-15T03:46:43;11.40;99.90
54832;DHT22;40730;53.068;6.572;2024-02-15T03:49:12;11.40;99.90
54832;DHT22;40730;53.068;6.572;2024-02-15T03:51:37;11.40;99.90
54832;DHT22;40730;53.068;6.572;2024-02-15T03:54:03;11.40;99.90
54832;DHT22;40730;53.068;6.572;2024-02-15T03:56:29;11.40;99.90
54832;DHT22;40730;53.068;6.572;2024-02-15T03:58:57;11.30;99.90
54832;DHT22;40730;53.068;6.572;2024-02-15T04:01:24;11.30;99.90
54832;DHT22;40730;53.068;6.572;2024-02-15T04:03:50;11.30;99.90
54832;DHT22;40730;53.068;6.572;2024-02-15T04:06:15;11.40;99.90
54832;DHT22;40730;53.068;6.572;2024-02-15T04:08:41;11.40;99.90
54832;DHT22;40730;53.068;6.572;2024-02-15T04:11:06;11.30;99.90
54832;DHT22;40730;53.068;6.572;2024-02-15T04:13:34;11.40;99.90
54832;DHT22;40730;53.068;6.572;2024-02-15T04:15:59;11.70;99.90
54832;DHT22;40730;53.068;6.572;2024-02-15T04:18:25;11.40;99.90
54832;DHT22;40730;53.068;6.572;2024-02-15T04:20:50;11.30;99.90
54832;DHT22;40730;53.068;6.572;2024-02-15T04:23:17;11.40;99.90
54832;DHT22;40730;53.068;6.572;2024-02-15T04:25:42;11.30;99.90
54832;DHT22;40730;53.068;6.572;2024-02-15T04:28:12;11.40;99.90
54832;DHT22;40730;53.068;6.572;2024-02-15T04:30:37;11.40;99.90
54832;DHT22;40730;53.068;6.572;2024-02-15T04:33:04;11.40;99.90
54832;DHT22;40730;53.068;6.572;2024-02-15T04:35:31;11.40;99.90
54832;DHT22;40730;53.068;6.572;2024-02-15T04:37:56;11.50;99.90
54832;DHT22;40730;53.068;6.572;2024-02-15T04:40:23;11.40;99.90
54832;DHT22;40730;53.068;6.572;2024-02-15T04:42:48;11.50;99.90
54832;DHT22;40730;53.068;6.572;2024-02-15T04:45:15;11.50;99.90
54832;DHT22;40730;53.068;6.572;2024-02-15T04:47:43;11.40;99.90
54832;DHT22;40730;53.068;6.572;2024-02-15T04:50:11;11.50;99.90
54832;DHT22;40730;53.068;6.572;2024-02-15T04:52:36;11.50;99.90
54832;DHT22;40730;53.068;6.572;2024-02-15T04:55:02;11.60;99.90
54832;DHT22;40730;53.068;6.572;2024-02-15T04:57:30;11.60;99.90
54832;DHT22;40730;53.068;6.572;2024-02-15T04:59:56;11.60;99.90
54832;DHT22;40730;53.068;6.572;2024-02-15T05:02:22;11.60;99.90
54832;DHT22;40730;53.068;6.572;2024-02-15T05:04:50;11.70;99.90
54832;DHT22;40730;53.068;6.572;2024-02-15T05:07:21;11.60;99.90
54832;DHT22;40730;53.068;6.572;2024-02-15T05:09:50;11.70;99.90
54832;DHT22;40730;53.068;6.572;2024-02-15T05:12:23;11.60;99.90
54832;DHT22;40730;53.068;6.572;2024-02-15T05:14:52;11.70;99.90
54832;DHT22;40730;53.068;6.572;2024-02-15T05:17:18;11.70;99.90
54832;DHT22;40730;53.068;6.572;2024-02-15T05:19:44;12.10;99.90
54832;DHT22;40730;53.068;6.572;2024-02-15T05:22:10;11.70;99.90
54832;DHT22;40730;53.068;6.572;2024-02-15T05:24:37;11.70;99.90
54832;DHT22;40730;53.068;6.572;2024-02-15T05:27:04;11.70;99.90
54832;DHT22;40730;53.068;6.572;2024-02-15T05:29:30;11.70;99.90
54832;DHT22;40730;53.068;6.572;2024-02-15T05:31:59;11.80;99.90
54832;DHT22;40730;53.068;6.572;2024-02-15T05:34:25;11.80;99.90
54832;DHT22;40730;53.068;6.572;2024-02-15T05:36:51;11.70;99.90
54832;DHT22;40730;53.068;6.572;2024-02-15T05:39:17;11.70;99.90
54832;DHT22;40730;53.068;6.572;2024-02-15T05:41:47;11.70;99.90
54832;DHT22;40730;53.068;6.572;2024-02-15T05:44:12;11.70;99.90
54832;DHT22;40730;53.068;6.572;2024-02-15T05:46:39;11.70;99.90
54832;DHT22;40730;53.068;6.572;2024-02-15T05:49:06;11.80;99.90
54832;DHT22;40730;53.068;6.572;2024-02-15T05:51:31;11.70;99.90
54832;DHT22;40730;53.068;6.572;2024-02-15T05:53:57;11.80;99.90
54832;DHT22;40730;53.068;6.572;2024-02-15T05:56:26;11.80;99.90
54832;DHT22;40730;53.068;6.572;2024-02-15T05:58:52;11.80;99.90
54832;DHT22;40730;53.068;6.572;2024-02-15T06:01:18;11.70;99.90
54832;DHT22;40730;53.068;6.572;2024-02-15T06:03:44;11.80;99.90
54832;DHT22;40730;53.068;6.572;2024-02-15T06:06:10;11.70;99.90
54832;DHT22;40730;53.068;6.572;2024-02-15T06:08:37;11.80;99.90
54832;DHT22;40730;53.068;6.572;2024-02-15T06:11:03;11.70;99.90
54832;DHT22;40730;53.068;6.572;2024-02-15T06:13:31;11.70;99.90
54832;DHT22;40730;53.068;6.572;2024-02-15T06:15:57;11.70;99.90
54832;DHT22;40730;53.068;6.572;2024-02-15T06:18:28;11.80;99.90
54832;DHT22;40730;53.068;6.572;2024-02-15T06:20:55;11.80;99.90
54832;DHT22;40730;53.068;6.572;2024-02-15T06:23:23;11.80;99.90
54832;DHT22;40730;53.068;6.572;2024-02-15T06:25:51;11.80;99.90
54832;DHT22;40730;53.068;6.572;2024-02-15T06:28:18;11.80;99.90
54832;DHT22;40730;53.068;6.572;2024-02-15T06:31:03;11.80;99.90
54832;DHT22;40730;53.068;6.572;2024-02-15T06:33:47;11.80;99.90
54832;DHT22;40730;53.068;6.572;2024-02-15T06:36:31;11.80;99.90
54832;DHT22;40730;53.068;6.572;2024-02-15T06:39:15;11.90;99.90
54832;DHT22;40730;53.068;6.572;2024-02-15T06:42:00;11.80;99.90
54832;DHT22;40730;53.068;6.572;2024-02-15T06:44:27;11.80;99.90
54832;DHT22;40730;53.068;6.572;2024-02-15T06:46:52;11.80;99.90
54832;DHT22;40730;53.068;6.572;2024-02-15T06:49:18;11.80;99.90
54832;DHT22;40730;53.068;6.572;2024-02-15T06:51:43;11.80;99.90
54832;DHT22;40730;53.068;6.572;2024-02-15T06:54:12;11.70;99.90
54832;DHT22;40730;53.068;6.572;2024-02-15T06:56:38;11.80;99.90
54832;DHT22;40730;53.068;6.572;2024-02-15T06:59:08;11.90;99.90
54832;DHT22;40730;53.068;6.572;2024-02-15T07:01:35;11.80;99.90
54832;DHT22;40730;53.068;6.572;2024-02-15T07:04:01;11.80;99.90
54832;DHT22;40730;53.068;6.572;2024-02-15T07:06:28;11.80;99.90
54832;DHT22;40730;53.068;6.572;2024-02-15T07:08:54;11.80;99.90
54832;DHT22;40730;53.068;6.572;2024-02-15T07:11:22;11.90;99.90
54832;DHT22;40730;53.068;6.572;2024-02-15T07:13:48;11.90;99.90
54832;DHT22;40730;53.068;6.572;2024-02-15T07:16:13;11.80;99.90
54832;DHT22;40730;53.068;6.572;2024-02-15T07:18:41;11.90;99.90
54832;DHT22;40730;53.068;6.572;2024-02-15T07:21:06;11.90;99.90
54832;DHT22;40730;53.068;6.572;2024-02-15T07:23:39;11.80;99.90
54832;DHT22;40730;53.068;6.572;2024-02-15T07:26:06;11.90;99.90
54832;DHT22;40730;53.068;6.572;2024-02-15T07:28:33;11.80;99.90
54832;DHT22;40730;53.068;6.572;2024-02-15T07:30:59;11.90;99.90
54832;DHT22;40730;53.068;6.572;2024-02-15T07:33:28;11.90;99.90
54832;DHT22;40730;53.068;6.572;2024-02-15T07:35:54;11.90;99.90
54832;DHT22;40730;53.068;6.572;2024-02-15T07:38:20;11.80;99.90
54832;DHT22;40730;53.068;6.572;2024-02-15T07:40:49;11.80;99.90
54832;DHT22;40730;53.068;6.572;2024-02-15T07:43:15;11.70;99.90
54832;DHT22;40730;53.068;6.572;2024-02-15T07:45:40;11.80;99.90
54832;DHT22;40730;53.068;6.572;2024-02-15T07:48:06;11.80;99.90
54832;DHT22;40730;53.068;6.572;2024-02-15T07:50:32;11.90;99.90
54832;DHT22;40730;53.068;6.572;2024-02-15T07:52:58;11.80;99.90
54832;DHT22;40730;53.068;6.572;2024-02-15T07:55:24;11.80;99.90
54832;DHT22;40730;53.068;6.572;2024-02-15T07:57:53;11.80;99.90
54832;DHT22;40730;53.068;6.572;2024-02-15T08:00:19;11.80;99.90
54832;DHT22;40730;53.068;6.572;2024-02-15T08:02:45;11.90;99.90
54832;DHT22;40730;53.068;6.572;2024-02-15T08:05:11;11.90;99.90
54832;DHT22;40730;53.068;6.572;2024-02-15T08:07:41;11.80;99.90
54832;DHT22;40730;53.068;6.572;2024-02-15T08:10:07;11.90;99.90
54832;DHT22;40730;53.068;6.572;2024-02-15T08:12:38;11.80;99.90
54832;DHT22;40730;53.068;6.572;2024-02-15T08:15:04;11.90;99.90
54832;DHT22;40730;53.068;6.572;2024-02-15T08:17:30;11.90;99.90
54832;DHT22;40730;53.068;6.572;2024-02-15T08:19:56;11.90;99.90
54832;DHT22;40730;53.068;6.572;2024-02-15T08:22:21;11.90;99.90
54832;DHT22;40730;53.068;6.572;2024-02-15T08:24:52;11.90;99.90
54832;DHT22;40730;53.068;6.572;2024-02-15T08:27:18;11.90;99.90
54832;DHT22;40730;53.068;6.572;2024-02-15T08:29:43;11.90;99.90
54832;DHT22;40730;53.068;6.572;2024-02-15T08:32:09;11.90;99.90
54832;DHT22;40730;53.068;6.572;2024-02-15T08:34:34;11.90;99.90
54832;DHT22;40730;53.068;6.572;2024-02-15T08:37:00;11.90;99.90
54832;DHT22;40730;53.068;6.572;2024-02-15T08:39:26;12.00;99.90
54832;DHT22;40730;53.068;6.572;2024-02-15T08:41:51;12.00;99.90
54832;DHT22;40730;53.068;6.572;2024-02-15T08:44:18;11.90;99.90
54832;DHT22;40730;53.068;6.572;2024-02-15T08:46:44;11.90;99.90
54832;DHT22;40730;53.068;6.572;2024-02-15T08:49:10;12.00;99.90
54832;DHT22;40730;53.068;6.572;2024-02-15T08:51:39;11.90;99.90
54832;DHT22;40730;53.068;6.572;2024-02-15T08:54:04;12.00;99.90
54832;DHT22;40730;53.068;6.572;2024-02-15T08:56:30;11.90;99.90
54832;DHT22;40730;53.068;6.572;2024-02-15T08:58:56;12.00;99.90
54832;DHT22;40730;53.068;6.572;2024-02-15T09:01:23;11.90;99.90
54832;DHT22;40730;53.068;6.572;2024-02-15T09:03:49;12.20;99.90
54832;DHT22;40730;53.068;6.572;2024-02-15T09:06:15;11.90;99.90
54832;DHT22;40730;53.068;6.572;2024-02-15T09:08:40;12.00;99.90
54832;DHT22;40730;53.068;6.572;2024-02-15T09:11:06;12.00;99.90
54832;DHT22;40730;53.068;6.572;2024-02-15T09:13:31;12.00;99.90
54832;DHT22;40730;53.068;6.572;2024-02-15T09:15:59;12.00;99.90
54832;DHT22;40730;53.068;6.572;2024-02-15T09:18:24;12.00;99.90
54832;DHT22;40730;53.068;6.572;2024-02-15T09:20:50;11.90;99.90
54832;DHT22;40730;53.068;6.572;2024-02-15T09:23:24;11.90;99.90
54832;DHT22;40730;53.068;6.572;2024-02-15T09:25:50;12.00;99.90
54832;DHT22;40730;53.068;6.572;2024-02-15T09:28:17;12.00;99.90
54832;DHT22;40730;53.068;6.572;2024-02-15T09:30:48;12.00;99.90
54832;DHT22;40730;53.068;6.572;2024-02-15T09:33:13;12.00;99.90
54832;DHT22;40730;53.068;6.572;2024-02-15T09:35:39;12.10;99.90
54832;DHT22;40730;53.068;6.572;2024-02-15T09:38:05;12.10;99.90
54832;DHT22;40730;53.068;6.572;2024-02-15T09:40:31;12.00;99.90
54832;DHT22;40730;53.068;6.572;2024-02-15T09:42:59;12.10;99.90
54832;DHT22;40730;53.068;6.572;2024-02-15T09:45:25;12.10;99.90
54832;DHT22;40730;53.068;6.572;2024-02-15T09:47:51;12.20;99.90
54832;DHT22;40730;53.068;6.572;2024-02-15T09:50:18;12.20;99.90
54832;DHT22;40730;53.068;6.572;2024-02-15T09:52:49;12.30;99.90
54832;DHT22;40730;53.068;6.572;2024-02-15T09:55:16;12.20;99.90
54832;DHT22;40730;53.068;6.572;2024-02-15T09:57:43;12.30;99.90
54832;DHT22;40730;53.068;6.572;2024-02-15T10:00:10;12.20;99.90
54832;DHT22;40730;53.068;6.572;2024-02-15T10:02:44;12.30;99.90
54832;DHT22;40730;53.068;6.572;2024-02-15T10:05:10;12.40;99.90
54832;DHT22;40730;53.068;6.572;2024-02-15T10:07:43;12.30;99.90
54832;DHT22;40730;53.068;6.572;2024-02-15T10:12:44;12.40;99.90
54832;DHT22;40730;53.068;6.572;2024-02-15T10:15:09;12.40;99.90
54832;DHT22;40730;53.068;6.572;2024-02-15T10:17:35;12.30;99.90
54832;DHT22;40730;53.068;6.572;2024-02-15T10:20:06;12.30;99.90
54832;DHT22;40730;53.068;6.572;2024-02-15T10:22:32;12.40;99.90
54832;DHT22;40730;53.068;6.572;2024-02-15T10:25:14;12.40;99.90
54832;DHT22;40730;53.068;6.572;2024-02-15T10:27:40;12.40;99.90
54832;DHT22;40730;53.068;6.572;2024-02-15T10:30:17;12.40;99.90
54832;DHT22;40730;53.068;6.572;2024-02-15T10:32:43;12.40;99.90
54832;DHT22;40730;53.068;6.572;2024-02-15T10:35:10;12.50;99.90
54832;DHT22;40730;53.068;6.572;2024-02-15T10:37:41;12.50;99.90
54832;DHT22;40730;53.068;6.572;2024-02-15T10:40:07;12.60;99.90
54832;DHT22;40730;53.068;6.572;2024-02-15T10:42:35;12.60;99.90
54832;DHT22;40730;53.068;6.572;2024-02-15T10:45:05;12.60;99.90
54832;DHT22;40730;53.068;6.572;2024-02-15T10:47:39;12.60;99.90
54832;DHT22;40730;53.068;6.572;2024-02-15T10:50:06;12.80;99.90
54832;DHT22;40730;53.068;6.572;2024-02-15T10:52:32;12.80;99.90
54832;DHT22;40730;53.068;6.572;2024-02-15T10:55:04;12.80;99.90
54832;DHT22;40730;53.068;6.572;2024-02-15T10:57:37;12.70;99.90
54832;DHT22;40730;53.068;6.572;2024-02-15T11:00:06;12.80;99.90
54832;DHT22;40730;53.068;6.572;2024-02-15T11:03:07;12.80;99.90
54832;DHT22;40730;53.068;6.572;2024-02-15T11:05:33;12.80;99.90
54832;DHT22;40730;53.068;6.572;2024-02-15T11:08:07;12.80;99.90
54832;DHT22;40730;53.068;6.572;2024-02-15T11:10:37;12.90;99.90
54832;DHT22;40730;53.068;6.572;2024-02-15T11:13:03;12.90;99.90
54832;DHT22;40730;53.068;6.572;2024-02-15T11:18:05;12.90;99.90
54832;DHT22;40730;53.068;6.572;2024-02-15T11:23:00;12.90;99.90
54832;DHT22;40730;53.068;6.572;2024-02-15T11:25:39;13.00;99.90
54832;DHT22;40730;53.068;6.572;2024-02-15T11:30:51;13.10;99.90
54832;DHT22;40730;53.068;6.572;2024-02-15T11:33:36;13.20;99.90
54832;DHT22;40730;53.068;6.572;2024-02-15T11:36:11;13.20;99.90
54832;DHT22;40730;53.068;6.572;2024-02-15T11:38:38;13.10;99.90
54832;DHT22;40730;53.068;6.572;2024-02-15T11:41:09;13.20;99.90
54832;DHT22;40730;53.068;6.572;2024-02-15T11:46:16;13.20;99.90
54832;DHT22;40730;53.068;6.572;2024-02-15T11:48:47;13.20;99.90
54832;DHT22;40730;53.068;6.572;2024-02-15T11:54:05;13.20;99.90
54832;DHT22;40730;53.068;6.572;2024-02-15T11:59:09;13.10;99.90
54832;DHT22;40730;53.068;6.572;2024-02-15T12:01:44;13.10;99.90
54832;DHT22;40730;53.068;6.572;2024-02-15T12:04:28;13.10;99.90
54832;DHT22;40730;53.068;6.572;2024-02-15T12:07:16;13.10;99.90
54832;DHT22;40730;53.068;6.572;2024-02-15T12:10:01;13.10;99.90
54832;DHT22;40730;53.068;6.572;2024-02-15T12:12:52;13.10;99.90
54832;DHT22;40730;53.068;6.572;2024-02-15T12:15:36;13.00;99.90
54832;DHT22;40730;53.068;6.572;2024-02-15T12:18:20;13.00;99.90
54832;DHT22;40730;53.068;6.572;2024-02-15T12:21:05;13.00;99.90
54832;DHT22;40730;53.068;6.572;2024-02-15T12:23:32;12.90;99.90
54832;DHT22;40730;53.068;6.572;2024-02-15T12:26:00;12.90;99.90
54832;DHT22;40730;53.068;6.572;2024-02-15T12:28:26;12.90;99.90
54832;DHT22;40730;53.068;6.572;2024-02-15T12:30:56;12.80;99.90
54832;DHT22;40730;53.068;6.572;2024-02-15T12:33:22;12.80;99.90
54832;DHT22;40730;53.068;6.572;2024-02-15T12:35:49;12.80;99.90
54832;DHT22;40730;53.068;6.572;2024-02-15T12:38:15;12.80;99.90
54832;DHT22;40730;53.068;6.572;2024-02-15T12:40:42;12.80;99.90
54832;DHT22;40730;53.068;6.572;2024-02-15T12:43:09;12.80;99.90
54832;DHT22;40730;53.068;6.572;2024-02-15T12:45:41;12.80;99.90
54832;DHT22;40730;53.068;6.572;2024-02-15T12:48:07;12.80;99.90
54832;DHT22;40730;53.068;6.572;2024-02-15T12:50:34;12.80;99.90
54832;DHT22;40730;53.068;6.572;2024-02-15T12:53:00;12.80;99.90
54832;DHT22;40730;53.068;6.572;2024-02-15T12:55:29;12.90;99.90
54832;DHT22;40730;53.068;6.572;2024-02-15T12:58:00;12.80;99.90
54832;DHT22;40730;53.068;6.572;2024-02-15T13:00:30;12.80;99.90
54832;DHT22;40730;53.068;6.572;2024-02-15T13:02:59;12.70;99.90
54832;DHT22;40730;53.068;6.572;2024-02-15T13:05:27;12.80;99.90
54832;DHT22;40730;53.068;6.572;2024-02-15T13:07:55;12.80;99.90
54832;DHT22;40730;53.068;6.572;2024-02-15T13:10:21;12.80;99.90
54832;DHT22;40730;53.068;6.572;2024-02-15T13:12:48;12.80;99.90
54832;DHT22;40730;53.068;6.572;2024-02-15T13:15:15;12.70;99.90
54832;DHT22;40730;53.068;6.572;2024-02-15T13:17:46;12.80;99.90
54832;DHT22;40730;53.068;6.572;2024-02-15T13:20:14;12.80;99.90
54832;DHT22;40730;53.068;6.572;2024-02-15T13:22:42;12.80;99.90
54832;DHT22;40730;53.068;6.572;2024-02-15T13:25:09;12.70;99.90
54832;DHT22;40730;53.068;6.572;2024-02-15T13:27:35;12.70;99.90
54832;DHT22;40730;53.068;6.572;2024-02-15T13:30:04;12.70;99.90
54832;DHT22;40730;53.068;6.572;2024-02-15T13:32:36;12.70;99.90
54832;DHT22;40730;53.068;6.572;2024-02-15T13:35:07;12.70;99.90
54832;DHT22;40730;53.068;6.572;2024-02-15T13:37:48;12.70;99.90
54832;DHT22;40730;53.068;6.572;2024-02-15T13:40:14;12.70;99.90
54832;DHT22;40730;53.068;6.572;2024-02-15T13:42:45;12.70;99.90
54832;DHT22;40730;53.068;6.572;2024-02-15T13:45:22;12.70;99.90
54832;DHT22;40730;53.068;6.572;2024-02-15T13:47:51;12.70;99.90
54832;DHT22;40730;53.068;6.572;2024-02-15T13:50:18;12.60;99.90
54832;DHT22;40730;53.068;6.572;2024-02-15T13:52:45;12.70;99.90
54832;DHT22;40730;53.068;6.572;2024-02-15T13:55:15;12.70;99.90
54832;DHT22;40730;53.068;6.572;2024-02-15T13:57:41;12.70;99.90
54832;DHT22;40730;53.068;6.572;2024-02-15T14:00:09;12.70;99.90
54832;DHT22;40730;53.068;6.572;2024-02-15T14:02:50;12.70;99.90
54832;DHT22;40730;53.068;6.572;2024-02-15T14:05:16;12.70;99.90
54832;DHT22;40730;53.068;6.572;2024-02-15T14:07:48;12.80;99.90
54832;DHT22;40730;53.068;6.572;2024-02-15T14:10:24;12.80;99.90
54832;DHT22;40730;53.068;6.572;2024-02-15T14:12:52;12.70;99.90
54832;DHT22;40730;53.068;6.572;2024-02-15T14:15:18;12.80;99.90
54832;DHT22;40730;53.068;6.572;2024-02-15T14:17:45;12.70;99.90
54832;DHT22;40730;53.068;6.572;2024-02-15T14:20:11;12.80;99.90
54832;DHT22;40730;53.068;6.572;2024-02-15T14:22:40;12.70;99.90
54832;DHT22;40730;53.068;6.572;2024-02-15T14:25:07;12.80;99.90
54832;DHT22;40730;53.068;6.572;2024-02-15T14:27:33;12.70;99.90
54832;DHT22;40730;53.068;6.572;2024-02-15T14:29:59;12.70;99.90
54832;DHT22;40730;53.068;6.572;2024-02-15T14:32:45;12.70;99.90
54832;DHT22;40730;53.068;6.572;2024-02-15T14:35:33;12.70;99.90
54832;DHT22;40730;53.068;6.572;2024-02-15T14:38:02;12.80;99.90
54832;DHT22;40730;53.068;6.572;2024-02-15T14:40:31;12.70;99.90
54832;DHT22;40730;53.068;6.572;2024-02-15T14:42:56;12.80;99.90
54832;DHT22;40730;53.068;6.572;2024-02-15T14:45:22;12.70;99.90
54832;DHT22;40730;53.068;6.572;2024-02-15T14:47:48;12.70;99.90
54832;DHT22;40730;53.068;6.572;2024-02-15T14:50:14;12.70;99.90
54832;DHT22;40730;53.068;6.572;2024-02-15T14:52:39;12.70;99.90
54832;DHT22;40730;53.068;6.572;2024-02-15T14:55:05;12.70;99.90
54832;DHT22;40730;53.068;6.572;2024-02-15T14:57:33;12.80;99.90
54832;DHT22;40730;53.068;6.572;2024-02-15T15:00:00;12.70;99.90
54832;DHT22;40730;53.068;6.572;2024-02-15T15:02:25;12.80;99.90
54832;DHT22;40730;53.068;6.572;2024-02-15T15:04:51;12.80;99.90
54832;DHT22;40730;53.068;6.572;2024-02-15T15:07:43;12.80;99.90
54832;DHT22;40730;53.068;6.572;2024-02-15T15:10:28;12.60;99.90
54832;DHT22;40730;53.068;6.572;2024-02-15T15:13:12;12.80;99.90
54832;DHT22;40730;53.068;6.572;2024-02-15T15:15:39;12.90;99.90
54832;DHT22;40730;53.068;6.572;2024-02-15T15:18:06;12.90;99.90
54832;DHT22;40730;53.068;6.572;2024-02-15T15:20:31;12.90;99.90
54832;DHT22;40730;53.068;6.572;2024-02-15T15:22:59;12.90;99.90
54832;DHT22;40730;53.068;6.572;2024-02-15T15:25:26;12.90;99.90
54832;DHT22;40730;53.068;6.572;2024-02-15T15:27:53;12.90;99.90
54832;DHT22;40730;53.068;6.572;2024-02-15T15:30:19;12.90;99.90
54832;DHT22;40730;53.068;6.572;2024-02-15T15:32:46;13.00;99.90
54832;DHT22;40730;53.068;6.572;2024-02-15T15:35:12;12.90;99.90
54832;DHT22;40730;53.068;6.572;2024-02-15T15:37:39;12.90;99.90
54832;DHT22;40730;53.068;6.572;2024-02-15T15:40:06;12.90;99.90
54832;DHT22;40730;53.068;6.572;2024-02-15T15:42:36;13.00;99.90
54832;DHT22;40730;53.068;6.572;2024-02-15T15:45:04;13.00;99.90
54832;DHT22;40730;53.068;6.572;2024-02-15T15:47:30;12.90;99.90
54832;DHT22;40730;53.068;6.572;2024-02-15T15:49:56;13.00;99.90
54832;DHT22;40730;53.068;6.572;2024-02-15T15:52:24;13.00;99.90
54832;DHT22;40730;53.068;6.572;2024-02-15T15:54:50;13.00;99.90